Hagi, Japan

5:25 PM JST on July 30, 2016 (GMT +0900)
Toko temple | | Change Station

Elev 59 ft 34.41 °N, 131.42 °E | Updated 10 minutes ago

Partly Cloudy
Partly Cloudy
89.6 °F
Feels Like 103 °F
N
0.0
Wind Variable Wind from NNE

Today
High -- | Low -- °F
--% Chance of Precip.
Yesterday
High -- | Low -- °F
Precip. -- in
Pressure 29.86 in
Visibility 6.2 miles
Clouds Few 3000 ft
Heat Index 103 °F
Dew Point 77 °F
Humidity 67%
Rainfall in
Snow Depth Not available.
5:23 AM 7:17 PM
Waning Crescent, 15% visible
METAR RJOW 300800Z 31004KT 290V010 9999 FEW030 BKN/// 29/26 Q1011
Pressure 29.86 in
Visibility 6.2 miles
Clouds Few 3000 ft
Heat Index 103 °F
Dew Point 77 °F
Humidity 67%
Rainfall in
Snow Depth Not available.
5:23 AM 7:17 PM
Waning Crescent, 15% visible
METAR RJOW 300800Z 31004KT 290V010 9999 FEW030 BKN/// 29/26 Q1011

10-Day Weather Forecast

No radar image for this location.
×

Almanac

Astronomy

Jul. 30, 2016 Rise Set
Actual Time
Civil Twilight
Nautical Twilight
Astronomical Twilight
Moon
Length of Visible Light
Length of Day
Tomorrow will be .
, % of the Moon is Illuminated

Today's Extremes

Country Highs Country Lows

Community

WunderPhotos

Upload Photos

1,928,508 photos uploaded!

WunderBlog® & News

Nearby

Air Quality

  Air Quality AQ Index Pollutant
Not available.

Snow Depth

Station Depth Elevation

Earthquake Activity

City Distance Mag. Time & Date
Minimum magnitude displayed is 2.5.

Coastal Water Temperatures

Place Temperature

Stations

Nearby Weather Stations

Station Location Temp. Windchill Dew Point Humidity Wind Precip. Elev Updated Type